sensor_id;sensor_type;location;lat;lon;timestamp;P1;durP1;ratioP1;P2;durP2;ratioP2
16512;SDS011;8369;48.030;11.598;2024-02-21T00:02:21;3.20;;;2.20;;
16512;SDS011;8369;48.030;11.598;2024-02-21T00:04:47;3.60;;;2.03;;
16512;SDS011;8369;48.030;11.598;2024-02-21T00:07:13;3.87;;;1.90;;
16512;SDS011;8369;48.030;11.598;2024-02-21T00:09:39;3.00;;;2.00;;
16512;SDS011;8369;48.030;11.598;2024-02-21T00:12:05;2.20;;;1.73;;
16512;SDS011;8369;48.030;11.598;2024-02-21T00:14:32;5.00;;;2.07;;
16512;SDS011;8369;48.030;11.598;2024-02-21T00:16:58;3.60;;;2.10;;
16512;SDS011;8369;48.030;11.598;2024-02-21T00:19:24;3.80;;;2.30;;
16512;SDS011;8369;48.030;11.598;2024-02-21T00:21:51;4.07;;;2.37;;
16512;SDS011;8369;48.030;11.598;2024-02-21T00:24:17;1.90;;;1.63;;
16512;SDS011;8369;48.030;11.598;2024-02-21T00:26:43;2.20;;;1.70;;
16512;SDS011;8369;48.030;11.598;2024-02-21T00:29:09;4.37;;;1.90;;
16512;SDS011;8369;48.030;11.598;2024-02-21T00:31:36;3.23;;;2.00;;
16512;SDS011;8369;48.030;11.598;2024-02-21T00:34:02;2.53;;;1.87;;
16512;SDS011;8369;48.030;11.598;2024-02-21T00:36:28;2.73;;;1.97;;
16512;SDS011;8369;48.030;11.598;2024-02-21T00:38:54;4.60;;;2.23;;
16512;SDS011;8369;48.030;11.598;2024-02-21T00:41:20;2.90;;;2.17;;
16512;SDS011;8369;48.030;11.598;2024-02-21T00:43:46;3.00;;;2.00;;
16512;SDS011;8369;48.030;11.598;2024-02-21T00:46:14;2.43;;;1.80;;
16512;SDS011;8369;48.030;11.598;2024-02-21T00:48:40;3.37;;;1.90;;
16512;SDS011;8369;48.030;11.598;2024-02-21T00:51:06;3.10;;;1.83;;
16512;SDS011;8369;48.030;11.598;2024-02-21T00:53:32;2.83;;;1.60;;
16512;SDS011;8369;48.030;11.598;2024-02-21T00:55:58;4.60;;;1.83;;
16512;SDS011;8369;48.030;11.598;2024-02-21T00:58:24;2.40;;;1.87;;
16512;SDS011;8369;48.030;11.598;2024-02-21T01:00:51;4.20;;;1.97;;
16512;SDS011;8369;48.030;11.598;2024-02-21T01:03:18;4.63;;;1.97;;
16512;SDS011;8369;48.030;11.598;2024-02-21T01:05:45;2.30;;;2.00;;
16512;SDS011;8369;48.030;11.598;2024-02-21T01:08:11;1.60;;;1.50;;
16512;SDS011;8369;48.030;11.598;2024-02-21T01:10:37;4.40;;;1.80;;
16512;SDS011;8369;48.030;11.598;2024-02-21T01:13:03;3.43;;;2.10;;
16512;SDS011;8369;48.030;11.598;2024-02-21T01:15:30;2.60;;;1.57;;
16512;SDS011;8369;48.030;11.598;2024-02-21T01:17:56;2.77;;;1.63;;
16512;SDS011;8369;48.030;11.598;2024-02-21T01:20:22;1.97;;;1.60;;
16512;SDS011;8369;48.030;11.598;2024-02-21T01:22:48;2.60;;;1.70;;
16512;SDS011;8369;48.030;11.598;2024-02-21T01:25:14;2.73;;;1.80;;
16512;SDS011;8369;48.030;11.598;2024-02-21T01:27:41;3.60;;;1.60;;
16512;SDS011;8369;48.030;11.598;2024-02-21T01:30:07;2.20;;;1.60;;
16512;SDS011;8369;48.030;11.598;2024-02-21T01:32:36;4.27;;;1.80;;
16512;SDS011;8369;48.030;11.598;2024-02-21T01:35:02;2.30;;;1.73;;
16512;SDS011;8369;48.030;11.598;2024-02-21T01:37:28;2.07;;;1.50;;
16512;SDS011;8369;48.030;11.598;2024-02-21T01:39:54;3.30;;;1.73;;
16512;SDS011;8369;48.030;11.598;2024-02-21T01:42:20;3.20;;;1.60;;
16512;SDS011;8369;48.030;11.598;2024-02-21T01:44:46;1.83;;;1.53;;
16512;SDS011;8369;48.030;11.598;2024-02-21T01:47:12;2.13;;;1.40;;
16512;SDS011;8369;48.030;11.598;2024-02-21T01:49:40;2.07;;;1.30;;
16512;SDS011;8369;48.030;11.598;2024-02-21T01:52:07;1.87;;;1.70;;
16512;SDS011;8369;48.030;11.598;2024-02-21T01:54:34;2.20;;;1.60;;
16512;SDS011;8369;48.030;11.598;2024-02-21T01:57:00;1.30;;;1.20;;
16512;SDS011;8369;48.030;11.598;2024-02-21T01:59:27;2.37;;;1.67;;
16512;SDS011;8369;48.030;11.598;2024-02-21T02:01:53;1.50;;;1.30;;
16512;SDS011;8369;48.030;11.598;2024-02-21T02:04:21;1.67;;;1.37;;
16512;SDS011;8369;48.030;11.598;2024-02-21T02:06:48;1.43;;;1.33;;
16512;SDS011;8369;48.030;11.598;2024-02-21T02:09:15;1.43;;;1.30;;
16512;SDS011;8369;48.030;11.598;2024-02-21T02:11:42;2.20;;;1.30;;
16512;SDS011;8369;48.030;11.598;2024-02-21T02:14:08;2.53;;;1.40;;
16512;SDS011;8369;48.030;11.598;2024-02-21T02:16:34;3.23;;;1.87;;
16512;SDS011;8369;48.030;11.598;2024-02-21T02:19:01;2.03;;;1.43;;
16512;SDS011;8369;48.030;11.598;2024-02-21T02:24:48;1.63;;;1.33;;
16512;SDS011;8369;48.030;11.598;2024-02-21T02:27:14;1.63;;;1.27;;
16512;SDS011;8369;48.030;11.598;2024-02-21T02:29:41;2.10;;;1.37;;
16512;SDS011;8369;48.030;11.598;2024-02-21T02:32:08;1.43;;;1.33;;
16512;SDS011;8369;48.030;11.598;2024-02-21T02:34:34;2.97;;;1.37;;
16512;SDS011;8369;48.030;11.598;2024-02-21T02:37:00;1.87;;;1.60;;
16512;SDS011;8369;48.030;11.598;2024-02-21T02:39:26;2.13;;;1.37;;
16512;SDS011;8369;48.030;11.598;2024-02-21T02:41:52;2.20;;;1.63;;
16512;SDS011;8369;48.030;11.598;2024-02-21T02:44:18;2.57;;;1.50;;
16512;SDS011;8369;48.030;11.598;2024-02-21T02:46:44;1.67;;;1.20;;
16512;SDS011;8369;48.030;11.598;2024-02-21T02:49:10;1.40;;;1.30;;
16512;SDS011;8369;48.030;11.598;2024-02-21T02:51:36;2.03;;;1.43;;
16512;SDS011;8369;48.030;11.598;2024-02-21T02:54:06;1.67;;;1.33;;
16512;SDS011;8369;48.030;11.598;2024-02-21T02:56:33;1.37;;;1.27;;
16512;SDS011;8369;48.030;11.598;2024-02-21T02:58:59;1.10;;;1.00;;
16512;SDS011;8369;48.030;11.598;2024-02-21T03:01:25;2.80;;;1.30;;
16512;SDS011;8369;48.030;11.598;2024-02-21T03:03:52;1.73;;;1.30;;
16512;SDS011;8369;48.030;11.598;2024-02-21T03:06:19;2.57;;;1.13;;
16512;SDS011;8369;48.030;11.598;2024-02-21T03:08:45;1.30;;;1.20;;
16512;SDS011;8369;48.030;11.598;2024-02-21T03:11:11;1.73;;;1.10;;
16512;SDS011;8369;48.030;11.598;2024-02-21T03:13:37;1.20;;;1.10;;
16512;SDS011;8369;48.030;11.598;2024-02-21T03:16:04;1.67;;;1.10;;
16512;SDS011;8369;48.030;11.598;2024-02-21T03:18:31;2.43;;;0.97;;
16512;SDS011;8369;48.030;11.598;2024-02-21T03:20:57;2.57;;;1.27;;
16512;SDS011;8369;48.030;11.598;2024-02-21T03:23:23;1.87;;;1.13;;
16512;SDS011;8369;48.030;11.598;2024-02-21T03:25:49;1.20;;;1.10;;
16512;SDS011;8369;48.030;11.598;2024-02-21T03:28:16;0.90;;;0.90;;
16512;SDS011;8369;48.030;11.598;2024-02-21T03:30:41;3.80;;;1.43;;
16512;SDS011;8369;48.030;11.598;2024-02-21T03:33:08;1.90;;;1.20;;
16512;SDS011;8369;48.030;11.598;2024-02-21T03:35:34;2.73;;;1.40;;
16512;SDS011;8369;48.030;11.598;2024-02-21T03:38:00;1.40;;;1.30;;
16512;SDS011;8369;48.030;11.598;2024-02-21T03:40:27;1.30;;;1.20;;
16512;SDS011;8369;48.030;11.598;2024-02-21T03:42:53;1.00;;;1.00;;
16512;SDS011;8369;48.030;11.598;2024-02-21T03:45:19;1.00;;;1.00;;
16512;SDS011;8369;48.030;11.598;2024-02-21T03:47:45;1.67;;;1.23;;
16512;SDS011;8369;48.030;11.598;2024-02-21T03:50:12;2.87;;;1.50;;
16512;SDS011;8369;48.030;11.598;2024-02-21T03:52:38;1.20;;;1.10;;
16512;SDS011;8369;48.030;11.598;2024-02-21T03:55:04;1.07;;;1.07;;
16512;SDS011;8369;48.030;11.598;2024-02-21T03:57:33;1.47;;;1.23;;
16512;SDS011;8369;48.030;11.598;2024-02-21T03:59:59;1.20;;;1.10;;
16512;SDS011;8369;48.030;11.598;2024-02-21T04:02:25;1.40;;;1.30;;
16512;SDS011;8369;48.030;11.598;2024-02-21T04:04:52;2.13;;;1.10;;
16512;SDS011;8369;48.030;11.598;2024-02-21T04:07:18;1.37;;;1.23;;
16512;SDS011;8369;48.030;11.598;2024-02-21T04:09:44;2.50;;;1.30;;
16512;SDS011;8369;48.030;11.598;2024-02-21T04:12:10;2.47;;;1.23;;
16512;SDS011;8369;48.030;11.598;2024-02-21T04:14:36;1.33;;;1.00;;
16512;SDS011;8369;48.030;11.598;2024-02-21T04:17:02;1.30;;;1.20;;
16512;SDS011;8369;48.030;11.598;2024-02-21T04:19:30;1.03;;;1.00;;
16512;SDS011;8369;48.030;11.598;2024-02-21T04:21:57;2.50;;;1.47;;
16512;SDS011;8369;48.030;11.598;2024-02-21T04:24:23;1.43;;;1.20;;
16512;SDS011;8369;48.030;11.598;2024-02-21T04:26:50;1.93;;;1.40;;
16512;SDS011;8369;48.030;11.598;2024-02-21T04:29:16;1.20;;;1.10;;
16512;SDS011;8369;48.030;11.598;2024-02-21T04:31:42;1.53;;;1.30;;
16512;SDS011;8369;48.030;11.598;2024-02-21T04:34:08;1.47;;;1.27;;
16512;SDS011;8369;48.030;11.598;2024-02-21T04:36:34;1.77;;;1.47;;
16512;SDS011;8369;48.030;11.598;2024-02-21T04:39:00;1.30;;;1.20;;
16512;SDS011;8369;48.030;11.598;2024-02-21T04:41:27;1.57;;;1.23;;
16512;SDS011;8369;48.030;11.598;2024-02-21T04:43:53;1.30;;;1.10;;
16512;SDS011;8369;48.030;11.598;2024-02-21T04:46:19;1.30;;;1.20;;
16512;SDS011;8369;48.030;11.598;2024-02-21T04:48:45;1.20;;;1.10;;
16512;SDS011;8369;48.030;11.598;2024-02-21T04:51:11;2.30;;;1.20;;
16512;SDS011;8369;48.030;11.598;2024-02-21T04:53:38;1.57;;;1.20;;
16512;SDS011;8369;48.030;11.598;2024-02-21T04:56:04;2.03;;;1.20;;
16512;SDS011;8369;48.030;11.598;2024-02-21T04:58:30;2.23;;;1.10;;
16512;SDS011;8369;48.030;11.598;2024-02-21T05:00:56;1.20;;;1.10;;
16512;SDS011;8369;48.030;11.598;2024-02-21T05:03:23;1.07;;;1.07;;
16512;SDS011;8369;48.030;11.598;2024-02-21T05:05:49;1.73;;;1.20;;
16512;SDS011;8369;48.030;11.598;2024-02-21T05:08:18;1.17;;;1.00;;
16512;SDS011;8369;48.030;11.598;2024-02-21T05:10:44;3.10;;;1.30;;
16512;SDS011;8369;48.030;11.598;2024-02-21T05:13:10;1.30;;;1.20;;
16512;SDS011;8369;48.030;11.598;2024-02-21T05:15:36;2.10;;;1.10;;
16512;SDS011;8369;48.030;11.598;2024-02-21T05:18:03;3.23;;;1.10;;
16512;SDS011;8369;48.030;11.598;2024-02-21T05:20:29;1.80;;;1.20;;
16512;SDS011;8369;48.030;11.598;2024-02-21T05:22:55;4.33;;;1.10;;
16512;SDS011;8369;48.030;11.598;2024-02-21T05:25:22;4.73;;;1.20;;
16512;SDS011;8369;48.030;11.598;2024-02-21T05:27:50;0.97;;;0.97;;
16512;SDS011;8369;48.030;11.598;2024-02-21T05:30:19;1.70;;;1.20;;
16512;SDS011;8369;48.030;11.598;2024-02-21T05:32:45;1.43;;;1.10;;
16512;SDS011;8369;48.030;11.598;2024-02-21T05:35:11;1.40;;;1.03;;
16512;SDS011;8369;48.030;11.598;2024-02-21T05:37:38;1.50;;;1.23;;
16512;SDS011;8369;48.030;11.598;2024-02-21T05:40:04;2.17;;;1.40;;
16512;SDS011;8369;48.030;11.598;2024-02-21T05:42:31;1.00;;;1.00;;
16512;SDS011;8369;48.030;11.598;2024-02-21T05:44:58;1.27;;;1.13;;
16512;SDS011;8369;48.030;11.598;2024-02-21T05:47:24;1.97;;;1.00;;
16512;SDS011;8369;48.030;11.598;2024-02-21T05:49:50;1.33;;;1.10;;
16512;SDS011;8369;48.030;11.598;2024-02-21T05:52:18;1.53;;;0.93;;
16512;SDS011;8369;48.030;11.598;2024-02-21T05:54:44;1.20;;;1.10;;
16512;SDS011;8369;48.030;11.598;2024-02-21T05:57:10;2.50;;;0.90;;
16512;SDS011;8369;48.030;11.598;2024-02-21T05:59:37;14.00;;;1.60;;
16512;SDS011;8369;48.030;11.598;2024-02-21T06:02:05;1.37;;;0.90;;
16512;SDS011;8369;48.030;11.598;2024-02-21T06:04:31;1.67;;;1.40;;
16512;SDS011;8369;48.030;11.598;2024-02-21T06:06:57;1.27;;;1.10;;
16512;SDS011;8369;48.030;11.598;2024-02-21T06:09:23;1.20;;;1.10;;
16512;SDS011;8369;48.030;11.598;2024-02-21T06:11:49;1.40;;;1.10;;
16512;SDS011;8369;48.030;11.598;2024-02-21T06:14:15;1.97;;;1.00;;
16512;SDS011;8369;48.030;11.598;2024-02-21T06:16:41;1.97;;;1.00;;
16512;SDS011;8369;48.030;11.598;2024-02-21T06:19:08;0.90;;;0.90;;
16512;SDS011;8369;48.030;11.598;2024-02-21T06:21:34;1.00;;;0.90;;
16512;SDS011;8369;48.030;11.598;2024-02-21T06:24:00;3.23;;;2.13;;
16512;SDS011;8369;48.030;11.598;2024-02-21T06:26:26;2.53;;;1.97;;
16512;SDS011;8369;48.030;11.598;2024-02-21T06:28:52;3.57;;;2.23;;
16512;SDS011;8369;48.030;11.598;2024-02-21T06:31:18;2.60;;;1.90;;
16512;SDS011;8369;48.030;11.598;2024-02-21T06:33:44;4.13;;;1.60;;
16512;SDS011;8369;48.030;11.598;2024-02-21T06:36:10;1.73;;;1.33;;
16512;SDS011;8369;48.030;11.598;2024-02-21T06:38:35;3.40;;;1.20;;
16512;SDS011;8369;48.030;11.598;2024-02-21T06:41:01;5.77;;;1.40;;
16512;SDS011;8369;48.030;11.598;2024-02-21T06:43:28;2.63;;;1.60;;
16512;SDS011;8369;48.030;11.598;2024-02-21T06:45:54;2.27;;;1.80;;
16512;SDS011;8369;48.030;11.598;2024-02-21T06:48:22;1.80;;;1.57;;
16512;SDS011;8369;48.030;11.598;2024-02-21T06:50:48;1.90;;;1.43;;
16512;SDS011;8369;48.030;11.598;2024-02-21T06:53:13;1.40;;;1.30;;
16512;SDS011;8369;48.030;11.598;2024-02-21T06:55:39;1.20;;;1.10;;
16512;SDS011;8369;48.030;11.598;2024-02-21T06:58:05;1.30;;;1.20;;
16512;SDS011;8369;48.030;11.598;2024-02-21T07:00:33;1.63;;;1.50;;
16512;SDS011;8369;48.030;11.598;2024-02-21T07:02:59;2.17;;;1.60;;
16512;SDS011;8369;48.030;11.598;2024-02-21T07:05:25;2.20;;;1.47;;
16512;SDS011;8369;48.030;11.598;2024-02-21T07:07:51;1.63;;;1.20;;
16512;SDS011;8369;48.030;11.598;2024-02-21T07:10:20;1.57;;;1.23;;
16512;SDS011;8369;48.030;11.598;2024-02-21T07:12:46;1.30;;;1.10;;
16512;SDS011;8369;48.030;11.598;2024-02-21T07:15:12;1.30;;;1.20;;
16512;SDS011;8369;48.030;11.598;2024-02-21T07:17:38;2.83;;;1.10;;
16512;SDS011;8369;48.030;11.598;2024-02-21T07:20:05;1.97;;;1.10;;
16512;SDS011;8369;48.030;11.598;2024-02-21T07:22:31;1.00;;;0.90;;
16512;SDS011;8369;48.030;11.598;2024-02-21T07:24:57;2.90;;;1.30;;
16512;SDS011;8369;48.030;11.598;2024-02-21T07:27:23;1.37;;;1.27;;
16512;SDS011;8369;48.030;11.598;2024-02-21T07:29:53;2.67;;;1.20;;
16512;SDS011;8369;48.030;11.598;2024-02-21T07:32:19;1.30;;;1.10;;
16512;SDS011;8369;48.030;11.598;2024-02-21T07:34:45;1.93;;;1.20;;
16512;SDS011;8369;48.030;11.598;2024-02-21T07:37:11;4.10;;;1.27;;
16512;SDS011;8369;48.030;11.598;2024-02-21T07:39:37;1.20;;;1.10;;
16512;SDS011;8369;48.030;11.598;2024-02-21T07:42:03;1.30;;;1.20;;
16512;SDS011;8369;48.030;11.598;2024-02-21T07:44:29;1.40;;;1.10;;
16512;SDS011;8369;48.030;11.598;2024-02-21T07:46:56;1.63;;;1.10;;
16512;SDS011;8369;48.030;11.598;2024-02-21T07:49:22;1.20;;;1.10;;
16512;SDS011;8369;48.030;11.598;2024-02-21T07:51:48;2.17;;;1.20;;
16512;SDS011;8369;48.030;11.598;2024-02-21T07:54:14;1.17;;;0.83;;
16512;SDS011;8369;48.030;11.598;2024-02-21T07:56:40;9.00;;;1.57;;
16512;SDS011;8369;48.030;11.598;2024-02-21T07:59:06;6.17;;;1.23;;
16512;SDS011;8369;48.030;11.598;2024-02-21T08:01:33;1.27;;;1.00;;
16512;SDS011;8369;48.030;11.598;2024-02-21T08:04:00;1.60;;;1.20;;
16512;SDS011;8369;48.030;11.598;2024-02-21T08:06:26;1.37;;;1.17;;
16512;SDS011;8369;48.030;11.598;2024-02-21T08:08:51;4.10;;;0.90;;
16512;SDS011;8369;48.030;11.598;2024-02-21T08:11:18;1.03;;;1.03;;
16512;SDS011;8369;48.030;11.598;2024-02-21T08:13:44;4.43;;;1.50;;
16512;SDS011;8369;48.030;11.598;2024-02-21T08:16:09;1.93;;;1.20;;
16512;SDS011;8369;48.030;11.598;2024-02-21T08:18:36;1.63;;;1.30;;
16512;SDS011;8369;48.030;11.598;2024-02-21T08:21:03;1.27;;;1.17;;
16512;SDS011;8369;48.030;11.598;2024-02-21T08:23:29;1.97;;;1.13;;
16512;SDS011;8369;48.030;11.598;2024-02-21T08:25:57;2.53;;;1.10;;
16512;SDS011;8369;48.030;11.598;2024-02-21T08:28:23;1.00;;;0.90;;
16512;SDS011;8369;48.030;11.598;2024-02-21T08:30:50;1.50;;;1.00;;
16512;SDS011;8369;48.030;11.598;2024-02-21T08:33:16;4.73;;;1.00;;
16512;SDS011;8369;48.030;11.598;2024-02-21T08:35:42;1.63;;;1.10;;
16512;SDS011;8369;48.030;11.598;2024-02-21T08:38:08;2.03;;;0.90;;
16512;SDS011;8369;48.030;11.598;2024-02-21T08:40:34;3.20;;;0.90;;
16512;SDS011;8369;48.030;11.598;2024-02-21T08:43:00;1.70;;;1.00;;
16512;SDS011;8369;48.030;11.598;2024-02-21T08:45:26;0.80;;;0.80;;
16512;SDS011;8369;48.030;11.598;2024-02-21T08:47:52;4.27;;;1.20;;
16512;SDS011;8369;48.030;11.598;2024-02-21T08:50:18;1.27;;;0.93;;
16512;SDS011;8369;48.030;11.598;2024-02-21T08:52:43;1.17;;;0.80;;
16512;SDS011;8369;48.030;11.598;2024-02-21T08:55:09;1.30;;;1.00;;
16512;SDS011;8369;48.030;11.598;2024-02-21T09:10:32;0.90;;;0.90;;
16512;SDS011;8369;48.030;11.598;2024-02-21T09:12:58;1.73;;;0.90;;
16512;SDS011;8369;48.030;11.598;2024-02-21T09:15:24;1.57;;;0.97;;
16512;SDS011;8369;48.030;11.598;2024-02-21T09:17:50;1.10;;;1.00;;
16512;SDS011;8369;48.030;11.598;2024-02-21T09:20:16;1.07;;;1.00;;
16512;SDS011;8369;48.030;11.598;2024-02-21T09:22:43;2.47;;;0.97;;
16512;SDS011;8369;48.030;11.598;2024-02-21T09:25:09;1.07;;;0.97;;
16512;SDS011;8369;48.030;11.598;2024-02-21T09:27:39;0.90;;;0.80;;
16512;SDS011;8369;48.030;11.598;2024-02-21T09:30:08;1.10;;;1.00;;
16512;SDS011;8369;48.030;11.598;2024-02-21T09:32:34;1.30;;;0.87;;
16512;SDS011;8369;48.030;11.598;2024-02-21T09:35:00;0.67;;;0.67;;
16512;SDS011;8369;48.030;11.598;2024-02-21T09:37:26;1.20;;;0.90;;
16512;SDS011;8369;48.030;11.598;2024-02-21T09:39:52;0.70;;;0.70;;
16512;SDS011;8369;48.030;11.598;2024-02-21T09:42:19;0.77;;;0.70;;
16512;SDS011;8369;48.030;11.598;2024-02-21T09:44:47;1.50;;;0.80;;
16512;SDS011;8369;48.030;11.598;2024-02-21T09:47:24;0.80;;;0.80;;
16512;SDS011;8369;48.030;11.598;2024-02-21T09:49:59;1.10;;;0.80;;
16512;SDS011;8369;48.030;11.598;2024-02-21T09:55:36;0.60;;;0.60;;
16512;SDS011;8369;48.030;11.598;2024-02-21T09:58:05;0.90;;;0.90;;
16512;SDS011;8369;48.030;11.598;2024-02-21T10:00:35;0.70;;;0.70;;
16512;SDS011;8369;48.030;11.598;2024-02-21T10:03:02;0.87;;;0.87;;
16512;SDS011;8369;48.030;11.598;2024-02-21T10:05:35;0.80;;;0.80;;
16512;SDS011;8369;48.030;11.598;2024-02-21T10:08:13;0.70;;;0.70;;
16512;SDS011;8369;48.030;11.598;2024-02-21T10:10:55;0.77;;;0.77;;
16512;SDS011;8369;48.030;11.598;2024-02-21T10:13:30;1.60;;;0.70;;
16512;SDS011;8369;48.030;11.598;2024-02-21T10:18:41;1.57;;;1.10;;
16512;SDS011;8369;48.030;11.598;2024-02-21T10:21:10;0.87;;;0.87;;
16512;SDS011;8369;48.030;11.598;2024-02-21T10:26:30;0.80;;;0.80;;
16512;SDS011;8369;48.030;11.598;2024-02-21T10:28:56;0.93;;;0.90;;
16512;SDS011;8369;48.030;11.598;2024-02-21T10:31:23;1.37;;;1.00;;
16512;SDS011;8369;48.030;11.598;2024-02-21T10:33:54;1.00;;;0.90;;
16512;SDS011;8369;48.030;11.598;2024-02-21T10:36:30;1.10;;;0.93;;
16512;SDS011;8369;48.030;11.598;2024-02-21T10:38:56;1.47;;;1.00;;
16512;SDS011;8369;48.030;11.598;2024-02-21T10:41:25;2.07;;;0.90;;
16512;SDS011;8369;48.030;11.598;2024-02-21T10:43:53;0.80;;;0.80;;
16512;SDS011;8369;48.030;11.598;2024-02-21T10:46:23;0.93;;;0.87;;
16512;SDS011;8369;48.030;11.598;2024-02-21T10:48:59;0.80;;;0.80;;
16512;SDS011;8369;48.030;11.598;2024-02-21T10:51:35;2.17;;;0.80;;
16512;SDS011;8369;48.030;11.598;2024-02-21T10:57:03;1.20;;;0.80;;
16512;SDS011;8369;48.030;11.598;2024-02-21T10:59:30;0.77;;;0.73;;
16512;SDS011;8369;48.030;11.598;2024-02-21T11:01:59;1.57;;;0.80;;
16512;SDS011;8369;48.030;11.598;2024-02-21T11:04:28;1.47;;;0.70;;
16512;SDS011;8369;48.030;11.598;2024-02-21T11:06:57;0.80;;;0.80;;
16512;SDS011;8369;48.030;11.598;2024-02-21T11:09:30;1.70;;;0.83;;
16512;SDS011;8369;48.030;11.598;2024-02-21T11:11:57;0.90;;;0.90;;
16512;SDS011;8369;48.030;11.598;2024-02-21T11:14:25;0.80;;;0.80;;
16512;SDS011;8369;48.030;11.598;2024-02-21T11:16:55;1.00;;;0.67;;
16512;SDS011;8369;48.030;11.598;2024-02-21T11:19:21;0.70;;;0.70;;
16512;SDS011;8369;48.030;11.598;2024-02-21T11:21:49;0.53;;;0.53;;
16512;SDS011;8369;48.030;11.598;2024-02-21T11:24:36;0.70;;;0.70;;
16512;SDS011;8369;48.030;11.598;2024-02-21T11:27:11;0.60;;;0.60;;
16512;SDS011;8369;48.030;11.598;2024-02-21T11:29:45;0.97;;;0.73;;
16512;SDS011;8369;48.030;11.598;2024-02-21T11:32:15;0.60;;;0.60;;
16512;SDS011;8369;48.030;11.598;2024-02-21T11:34:52;0.60;;;0.60;;
16512;SDS011;8369;48.030;11.598;2024-02-21T11:37:24;0.70;;;0.70;;
16512;SDS011;8369;48.030;11.598;2024-02-21T11:39:53;0.60;;;0.60;;
16512;SDS011;8369;48.030;11.598;2024-02-21T11:42:21;0.60;;;0.60;;
16512;SDS011;8369;48.030;11.598;2024-02-21T11:44:47;0.73;;;0.73;;
16512;SDS011;8369;48.030;11.598;2024-02-21T11:47:14;1.30;;;0.63;;
16512;SDS011;8369;48.030;11.598;2024-02-21T11:49:44;0.70;;;0.70;;
16512;SDS011;8369;48.030;11.598;2024-02-21T11:52:12;0.87;;;0.80;;
16512;SDS011;8369;48.030;11.598;2024-02-21T11:54:41;2.07;;;0.57;;
16512;SDS011;8369;48.030;11.598;2024-02-21T11:57:09;0.60;;;0.60;;
16512;SDS011;8369;48.030;11.598;2024-02-21T11:59:45;0.70;;;0.70;;
16512;SDS011;8369;48.030;11.598;2024-02-21T12:02:12;0.50;;;0.50;;
16512;SDS011;8369;48.030;11.598;2024-02-21T12:04:39;2.23;;;0.70;;
16512;SDS011;8369;48.030;11.598;2024-02-21T12:07:08;1.07;;;0.80;;
16512;SDS011;8369;48.030;11.598;2024-02-21T12:09:38;0.93;;;0.70;;
16512;SDS011;8369;48.030;11.598;2024-02-21T12:12:09;0.60;;;0.60;;
16512;SDS011;8369;48.030;11.598;2024-02-21T12:14:35;1.70;;;0.80;;
16512;SDS011;8369;48.030;11.598;2024-02-21T12:17:01;0.80;;;0.80;;
16512;SDS011;8369;48.030;11.598;2024-02-21T12:19:31;0.80;;;0.80;;
16512;SDS011;8369;48.030;11.598;2024-02-21T12:22:01;0.70;;;0.70;;
16512;SDS011;8369;48.030;11.598;2024-02-21T12:24:30;0.77;;;0.77;;
16512;SDS011;8369;48.030;11.598;2024-02-21T12:26:56;0.90;;;0.70;;
16512;SDS011;8369;48.030;11.598;2024-02-21T12:29:24;0.90;;;0.90;;
16512;SDS011;8369;48.030;11.598;2024-02-21T12:31:51;0.70;;;0.70;;
16512;SDS011;8369;48.030;11.598;2024-02-21T12:34:17;0.80;;;0.80;;
16512;SDS011;8369;48.030;11.598;2024-02-21T12:36:47;1.20;;;0.90;;
16512;SDS011;8369;48.030;11.598;2024-02-21T12:39:13;0.77;;;0.77;;
16512;SDS011;8369;48.030;11.598;2024-02-21T12:41:39;0.80;;;0.80;;
16512;SDS011;8369;48.030;11.598;2024-02-21T12:44:09;0.80;;;0.80;;
16512;SDS011;8369;48.030;11.598;2024-02-21T12:46:36;0.70;;;0.70;;
16512;SDS011;8369;48.030;11.598;2024-02-21T12:49:05;0.60;;;0.57;;
16512;SDS011;8369;48.030;11.598;2024-02-21T12:51:36;1.30;;;0.90;;
16512;SDS011;8369;48.030;11.598;2024-02-21T12:54:03;1.00;;;0.90;;
16512;SDS011;8369;48.030;11.598;2024-02-21T12:56:32;2.17;;;0.70;;
16512;SDS011;8369;48.030;11.598;2024-02-21T12:59:03;1.23;;;0.83;;
16512;SDS011;8369;48.030;11.598;2024-02-21T13:01:33;0.80;;;0.80;;
16512;SDS011;8369;48.030;11.598;2024-02-21T13:04:03;0.60;;;0.60;;
16512;SDS011;8369;48.030;11.598;2024-02-21T13:06:29;2.07;;;0.70;;
16512;SDS011;8369;48.030;11.598;2024-02-21T13:08:55;1.87;;;0.83;;
16512;SDS011;8369;48.030;11.598;2024-02-21T13:11:22;0.60;;;0.60;;
16512;SDS011;8369;48.030;11.598;2024-02-21T13:13:52;0.60;;;0.60;;
16512;SDS011;8369;48.030;11.598;2024-02-21T13:16:18;0.83;;;0.63;;
16512;SDS011;8369;48.030;11.598;2024-02-21T13:18:44;3.23;;;0.90;;
16512;SDS011;8369;48.030;11.598;2024-02-21T13:21:15;0.87;;;0.77;;
16512;SDS011;8369;48.030;11.598;2024-02-21T13:23:41;0.70;;;0.70;;
16512;SDS011;8369;48.030;11.598;2024-02-21T13:26:21;0.60;;;0.60;;
16512;SDS011;8369;48.030;11.598;2024-02-21T13:28:50;0.70;;;0.70;;
16512;SDS011;8369;48.030;11.598;2024-02-21T13:31:16;0.60;;;0.60;;
16512;SDS011;8369;48.030;11.598;2024-02-21T13:33:42;1.40;;;0.93;;
16512;SDS011;8369;48.030;11.598;2024-02-21T13:36:09;1.00;;;0.77;;
16512;SDS011;8369;48.030;11.598;2024-02-21T13:38:35;0.60;;;0.60;;
16512;SDS011;8369;48.030;11.598;2024-02-21T13:41:01;0.60;;;0.60;;
16512;SDS011;8369;48.030;11.598;2024-02-21T13:43:28;0.70;;;0.70;;
16512;SDS011;8369;48.030;11.598;2024-02-21T13:46:00;0.70;;;0.70;;
16512;SDS011;8369;48.030;11.598;2024-02-21T13:48:39;0.70;;;0.70;;
16512;SDS011;8369;48.030;11.598;2024-02-21T13:51:08;0.87;;;0.80;;
16512;SDS011;8369;48.030;11.598;2024-02-21T13:53:37;0.80;;;0.80;;
16512;SDS011;8369;48.030;11.598;2024-02-21T13:56:03;0.60;;;0.60;;
16512;SDS011;8369;48.030;11.598;2024-02-21T13:58:29;1.23;;;0.80;;
16512;SDS011;8369;48.030;11.598;2024-02-21T14:00:59;1.83;;;0.70;;
16512;SDS011;8369;48.030;11.598;2024-02-21T14:03:25;1.23;;;0.90;;
16512;SDS011;8369;48.030;11.598;2024-02-21T14:05:51;0.70;;;0.70;;
16512;SDS011;8369;48.030;11.598;2024-02-21T14:08:18;0.90;;;0.90;;
16512;SDS011;8369;48.030;11.598;2024-02-21T14:10:44;2.23;;;0.90;;
16512;SDS011;8369;48.030;11.598;2024-02-21T14:13:09;0.97;;;0.60;;
16512;SDS011;8369;48.030;11.598;2024-02-21T14:15:45;0.80;;;0.80;;
16512;SDS011;8369;48.030;11.598;2024-02-21T14:18:13;0.73;;;0.73;;
16512;SDS011;8369;48.030;11.598;2024-02-21T14:20:41;0.90;;;0.60;;
16512;SDS011;8369;48.030;11.598;2024-02-21T14:23:10;1.10;;;1.00;;
16512;SDS011;8369;48.030;11.598;2024-02-21T14:25:41;0.57;;;0.57;;
16512;SDS011;8369;48.030;11.598;2024-02-21T14:28:07;0.70;;;0.70;;
16512;SDS011;8369;48.030;11.598;2024-02-21T14:30:38;0.60;;;0.60;;
16512;SDS011;8369;48.030;11.598;2024-02-21T14:33:05;1.37;;;0.60;;
16512;SDS011;8369;48.030;11.598;2024-02-21T14:35:33;0.60;;;0.60;;
16512;SDS011;8369;48.030;11.598;2024-02-21T14:37:59;0.80;;;0.80;;
16512;SDS011;8369;48.030;11.598;2024-02-21T14:40:27;1.33;;;0.93;;
16512;SDS011;8369;48.030;11.598;2024-02-21T14:42:55;1.53;;;0.83;;
16512;SDS011;8369;48.030;11.598;2024-02-21T14:45:24;0.63;;;0.63;;
16512;SDS011;8369;48.030;11.598;2024-02-21T14:47:50;0.60;;;0.60;;
16512;SDS011;8369;48.030;11.598;2024-02-21T14:50:22;2.50;;;0.90;;
16512;SDS011;8369;48.030;11.598;2024-02-21T14:52:51;0.80;;;0.80;;
16512;SDS011;8369;48.030;11.598;2024-02-21T14:55:23;1.03;;;0.80;;
16512;SDS011;8369;48.030;11.598;2024-02-21T14:57:50;1.13;;;1.07;;
16512;SDS011;8369;48.030;11.598;2024-02-21T15:00:16;1.63;;;1.30;;
16512;SDS011;8369;48.030;11.598;2024-02-21T15:02:58;1.00;;;0.90;;
16512;SDS011;8369;48.030;11.598;2024-02-21T15:05:31;0.93;;;0.93;;
16512;SDS011;8369;48.030;11.598;2024-02-21T15:08:06;0.97;;;0.80;;
16512;SDS011;8369;48.030;11.598;2024-02-21T15:10:36;0.87;;;0.60;;
16512;SDS011;8369;48.030;11.598;2024-02-21T15:13:01;1.57;;;0.70;;
16512;SDS011;8369;48.030;11.598;2024-02-21T15:15:28;1.37;;;1.10;;
16512;SDS011;8369;48.030;11.598;2024-02-21T15:18:03;1.03;;;0.80;;